sensor_id;sensor_type;location;lat;lon;timestamp;temperature;humidity
51476;DHT22;37554;50.362;7.568;2023-04-22T00:00:09;20.40;47.00
51476;DHT22;37554;50.362;7.568;2023-04-22T00:02:36;20.40;47.10
51476;DHT22;37554;50.362;7.568;2023-04-22T00:05:06;20.30;47.00
51476;DHT22;37554;50.362;7.568;2023-04-22T00:07:31;20.40;47.10
51476;DHT22;37554;50.362;7.568;2023-04-22T00:09:57;20.30;47.10
51476;DHT22;37554;50.362;7.568;2023-04-22T00:12:24;20.30;47.10
51476;DHT22;37554;50.362;7.568;2023-04-22T00:14:49;20.30;47.20
51476;DHT22;37554;50.362;7.568;2023-04-22T00:17:16;20.30;47.20
51476;DHT22;37554;50.362;7.568;2023-04-22T00:19:41;20.20;47.20
51476;DHT22;37554;50.362;7.568;2023-04-22T00:22:08;20.30;47.30
51476;DHT22;37554;50.362;7.568;2023-04-22T00:24:33;20.20;47.30
51476;DHT22;37554;50.362;7.568;2023-04-22T00:26:59;20.20;47.30
51476;DHT22;37554;50.362;7.568;2023-04-22T00:29:25;20.20;47.30
51476;DHT22;37554;50.362;7.568;2023-04-22T00:31:51;20.20;47.30
51476;DHT22;37554;50.362;7.568;2023-04-22T00:34:16;20.10;47.30
51476;DHT22;37554;50.362;7.568;2023-04-22T00:36:42;20.10;47.40
51476;DHT22;37554;50.362;7.568;2023-04-22T00:39:08;20.10;47.40
51476;DHT22;37554;50.362;7.568;2023-04-22T00:41:34;20.10;47.50
51476;DHT22;37554;50.362;7.568;2023-04-22T00:44:00;20.10;47.50
51476;DHT22;37554;50.362;7.568;2023-04-22T00:46:25;20.10;47.50
51476;DHT22;37554;50.362;7.568;2023-04-22T00:48:51;20.10;47.60
51476;DHT22;37554;50.362;7.568;2023-04-22T00:51:17;20.00;47.50
51476;DHT22;37554;50.362;7.568;2023-04-22T00:53:43;20.00;47.50
51476;DHT22;37554;50.362;7.568;2023-04-22T00:56:10;20.00;47.60
51476;DHT22;37554;50.362;7.568;2023-04-22T00:58:36;20.00;47.60
51476;DHT22;37554;50.362;7.568;2023-04-22T01:01:02;20.00;47.60
51476;DHT22;37554;50.362;7.568;2023-04-22T01:03:28;20.00;47.60
51476;DHT22;37554;50.362;7.568;2023-04-22T01:05:55;20.00;47.70
51476;DHT22;37554;50.362;7.568;2023-04-22T01:08:20;20.00;47.70
51476;DHT22;37554;50.362;7.568;2023-04-22T01:10:46;19.90;47.70
51476;DHT22;37554;50.362;7.568;2023-04-22T01:13:12;20.00;47.80
51476;DHT22;37554;50.362;7.568;2023-04-22T01:15:37;19.90;47.80
51476;DHT22;37554;50.362;7.568;2023-04-22T01:18:03;19.90;47.80
51476;DHT22;37554;50.362;7.568;2023-04-22T01:20:29;19.90;47.80
51476;DHT22;37554;50.362;7.568;2023-04-22T01:22:55;19.90;47.90
51476;DHT22;37554;50.362;7.568;2023-04-22T01:25:24;19.90;47.90
51476;DHT22;37554;50.362;7.568;2023-04-22T01:27:51;19.80;47.90
51476;DHT22;37554;50.362;7.568;2023-04-22T01:30:17;19.80;47.90
51476;DHT22;37554;50.362;7.568;2023-04-22T01:32:42;19.80;47.90
51476;DHT22;37554;50.362;7.568;2023-04-22T01:35:09;19.80;48.00
51476;DHT22;37554;50.362;7.568;2023-04-22T01:37:35;19.80;48.00
51476;DHT22;37554;50.362;7.568;2023-04-22T01:40:01;19.80;48.10
51476;DHT22;37554;50.362;7.568;2023-04-22T01:42:29;19.80;48.10
51476;DHT22;37554;50.362;7.568;2023-04-22T01:44:55;19.80;48.00
51476;DHT22;37554;50.362;7.568;2023-04-22T01:47:21;19.80;48.10
51476;DHT22;37554;50.362;7.568;2023-04-22T01:49:46;19.80;48.10
51476;DHT22;37554;50.362;7.568;2023-04-22T01:52:12;19.70;48.20
51476;DHT22;37554;50.362;7.568;2023-04-22T01:54:38;19.70;48.20
51476;DHT22;37554;50.362;7.568;2023-04-22T01:57:08;19.70;48.20
51476;DHT22;37554;50.362;7.568;2023-04-22T01:59:35;19.70;48.30
51476;DHT22;37554;50.362;7.568;2023-04-22T02:02:01;19.70;48.30
51476;DHT22;37554;50.362;7.568;2023-04-22T02:04:26;19.70;48.30
51476;DHT22;37554;50.362;7.568;2023-04-22T02:06:52;19.70;48.30
51476;DHT22;37554;50.362;7.568;2023-04-22T02:09:17;19.60;48.40
51476;DHT22;37554;50.362;7.568;2023-04-22T02:11:43;19.60;48.40
51476;DHT22;37554;50.362;7.568;2023-04-22T02:14:09;19.60;48.50
51476;DHT22;37554;50.362;7.568;2023-04-22T02:16:34;19.60;48.50
51476;DHT22;37554;50.362;7.568;2023-04-22T02:19:00;19.60;48.50
51476;DHT22;37554;50.362;7.568;2023-04-22T02:21:28;19.60;48.50
51476;DHT22;37554;50.362;7.568;2023-04-22T02:23:54;19.60;48.50
51476;DHT22;37554;50.362;7.568;2023-04-22T02:26:19;19.60;48.60
51476;DHT22;37554;50.362;7.568;2023-04-22T02:28:45;19.60;48.60
51476;DHT22;37554;50.362;7.568;2023-04-22T02:31:10;19.50;48.60
51476;DHT22;37554;50.362;7.568;2023-04-22T02:33:36;19.50;48.60
51476;DHT22;37554;50.362;7.568;2023-04-22T02:36:02;19.50;48.70
51476;DHT22;37554;50.362;7.568;2023-04-22T02:38:27;19.50;48.70
51476;DHT22;37554;50.362;7.568;2023-04-22T02:40:53;19.50;48.80
51476;DHT22;37554;50.362;7.568;2023-04-22T02:43:18;19.50;48.80
51476;DHT22;37554;50.362;7.568;2023-04-22T02:45:44;19.50;48.90
51476;DHT22;37554;50.362;7.568;2023-04-22T02:48:10;19.50;48.90
51476;DHT22;37554;50.362;7.568;2023-04-22T02:50:36;19.40;48.90
51476;DHT22;37554;50.362;7.568;2023-04-22T02:53:01;19.40;48.90
51476;DHT22;37554;50.362;7.568;2023-04-22T02:55:27;19.40;48.90
51476;DHT22;37554;50.362;7.568;2023-04-22T02:57:52;19.40;49.00
51476;DHT22;37554;50.362;7.568;2023-04-22T03:00:18;19.40;49.10
51476;DHT22;37554;50.362;7.568;2023-04-22T03:02:44;19.30;49.10
51476;DHT22;37554;50.362;7.568;2023-04-22T03:05:09;19.30;49.10
51476;DHT22;37554;50.362;7.568;2023-04-22T03:07:35;19.30;49.10
51476;DHT22;37554;50.362;7.568;2023-04-22T03:10:01;19.30;49.20
51476;DHT22;37554;50.362;7.568;2023-04-22T03:12:26;19.30;49.30
51476;DHT22;37554;50.362;7.568;2023-04-22T03:14:52;19.30;49.30
51476;DHT22;37554;50.362;7.568;2023-04-22T03:17:17;19.30;49.40
51476;DHT22;37554;50.362;7.568;2023-04-22T03:19:43;19.30;49.40
51476;DHT22;37554;50.362;7.568;2023-04-22T03:22:09;19.30;49.40
51476;DHT22;37554;50.362;7.568;2023-04-22T03:24:35;19.20;49.40
51476;DHT22;37554;50.362;7.568;2023-04-22T03:27:00;19.20;49.50
51476;DHT22;37554;50.362;7.568;2023-04-22T03:29:26;19.20;49.60
51476;DHT22;37554;50.362;7.568;2023-04-22T03:31:52;19.20;49.60
51476;DHT22;37554;50.362;7.568;2023-04-22T03:34:17;19.20;49.60
51476;DHT22;37554;50.362;7.568;2023-04-22T03:36:43;19.20;49.70
51476;DHT22;37554;50.362;7.568;2023-04-22T03:39:08;19.20;49.70
51476;DHT22;37554;50.362;7.568;2023-04-22T03:41:34;19.20;49.80
51476;DHT22;37554;50.362;7.568;2023-04-22T03:43:59;19.20;49.80
51476;DHT22;37554;50.362;7.568;2023-04-22T03:46:25;19.10;49.80
51476;DHT22;37554;50.362;7.568;2023-04-22T03:48:51;19.10;49.80
51476;DHT22;37554;50.362;7.568;2023-04-22T03:51:16;19.10;49.90
51476;DHT22;37554;50.362;7.568;2023-04-22T03:53:42;19.10;49.90
51476;DHT22;37554;50.362;7.568;2023-04-22T03:56:07;19.10;49.90
51476;DHT22;37554;50.362;7.568;2023-04-22T03:58:33;19.10;50.00
51476;DHT22;37554;50.362;7.568;2023-04-22T04:00:58;19.10;50.00
51476;DHT22;37554;50.362;7.568;2023-04-22T04:03:24;19.10;50.10
51476;DHT22;37554;50.362;7.568;2023-04-22T04:05:50;19.10;50.10
51476;DHT22;37554;50.362;7.568;2023-04-22T04:08:16;19.10;50.10
51476;DHT22;37554;50.362;7.568;2023-04-22T04:10:42;19.00;50.10
51476;DHT22;37554;50.362;7.568;2023-04-22T04:13:07;19.00;50.10
51476;DHT22;37554;50.362;7.568;2023-04-22T04:15:33;19.10;50.10
51476;DHT22;37554;50.362;7.568;2023-04-22T04:18:01;19.00;50.20
51476;DHT22;37554;50.362;7.568;2023-04-22T04:20:27;19.00;50.20
51476;DHT22;37554;50.362;7.568;2023-04-22T04:22:53;19.00;50.30
51476;DHT22;37554;50.362;7.568;2023-04-22T04:25:18;19.00;50.30
51476;DHT22;37554;50.362;7.568;2023-04-22T04:27:45;19.00;50.40
51476;DHT22;37554;50.362;7.568;2023-04-22T04:30:12;19.00;50.40
51476;DHT22;37554;50.362;7.568;2023-04-22T04:32:38;19.00;50.40
51476;DHT22;37554;50.362;7.568;2023-04-22T04:35:05;18.90;50.50
51476;DHT22;37554;50.362;7.568;2023-04-22T04:37:30;18.90;50.50
51476;DHT22;37554;50.362;7.568;2023-04-22T04:39:56;18.90;50.50
51476;DHT22;37554;50.362;7.568;2023-04-22T04:42:24;18.90;50.50
51476;DHT22;37554;50.362;7.568;2023-04-22T04:44:51;18.90;50.50
51476;DHT22;37554;50.362;7.568;2023-04-22T04:47:18;18.90;50.50
51476;DHT22;37554;50.362;7.568;2023-04-22T04:49:44;18.90;50.50
51476;DHT22;37554;50.362;7.568;2023-04-22T04:52:10;18.90;50.60
51476;DHT22;37554;50.362;7.568;2023-04-22T04:54:36;18.90;50.60
51476;DHT22;37554;50.362;7.568;2023-04-22T04:57:02;18.90;50.60
51476;DHT22;37554;50.362;7.568;2023-04-22T04:59:28;18.90;50.60
51476;DHT22;37554;50.362;7.568;2023-04-22T05:01:53;18.90;50.60
51476;DHT22;37554;50.362;7.568;2023-04-22T05:04:20;18.90;50.60
51476;DHT22;37554;50.362;7.568;2023-04-22T05:06:46;18.90;50.50
51476;DHT22;37554;50.362;7.568;2023-04-22T05:09:11;18.90;50.50
51476;DHT22;37554;50.362;7.568;2023-04-22T05:11:37;18.90;50.50
51476;DHT22;37554;50.362;7.568;2023-04-22T05:14:04;18.90;50.50
51476;DHT22;37554;50.362;7.568;2023-04-22T05:16:30;19.00;50.50
51476;DHT22;37554;50.362;7.568;2023-04-22T05:18:56;19.00;50.50
51476;DHT22;37554;50.362;7.568;2023-04-22T05:21:21;19.00;50.50
51476;DHT22;37554;50.362;7.568;2023-04-22T05:23:47;19.00;50.50
51476;DHT22;37554;50.362;7.568;2023-04-22T05:26:13;19.00;50.50
51476;DHT22;37554;50.362;7.568;2023-04-22T05:28:38;19.00;50.50
51476;DHT22;37554;50.362;7.568;2023-04-22T05:31:04;19.10;50.40
51476;DHT22;37554;50.362;7.568;2023-04-22T05:33:29;19.10;50.30
51476;DHT22;37554;50.362;7.568;2023-04-22T05:35:55;19.10;50.30
51476;DHT22;37554;50.362;7.568;2023-04-22T05:38:21;19.10;50.30
51476;DHT22;37554;50.362;7.568;2023-04-22T05:40:46;19.20;50.30
51476;DHT22;37554;50.362;7.568;2023-04-22T05:43:12;19.20;50.30
51476;DHT22;37554;50.362;7.568;2023-04-22T05:45:37;19.20;50.30
51476;DHT22;37554;50.362;7.568;2023-04-22T05:48:03;19.20;50.40
51476;DHT22;37554;50.362;7.568;2023-04-22T05:50:29;19.20;50.40
51476;DHT22;37554;50.362;7.568;2023-04-22T05:52:54;19.20;50.30
51476;DHT22;37554;50.362;7.568;2023-04-22T05:55:20;19.20;50.40
51476;DHT22;37554;50.362;7.568;2023-04-22T05:57:46;19.20;50.40
51476;DHT22;37554;50.362;7.568;2023-04-22T06:00:12;19.20;50.40
51476;DHT22;37554;50.362;7.568;2023-04-22T06:02:37;19.20;50.40
51476;DHT22;37554;50.362;7.568;2023-04-22T06:05:03;19.20;50.50
51476;DHT22;37554;50.362;7.568;2023-04-22T06:07:29;19.20;50.50
51476;DHT22;37554;50.362;7.568;2023-04-22T06:09:54;19.20;50.50
51476;DHT22;37554;50.362;7.568;2023-04-22T06:12:20;19.30;50.50
51476;DHT22;37554;50.362;7.568;2023-04-22T06:14:46;19.30;50.50
51476;DHT22;37554;50.362;7.568;2023-04-22T06:17:12;19.30;50.50
51476;DHT22;37554;50.362;7.568;2023-04-22T06:19:37;19.30;50.50
51476;DHT22;37554;50.362;7.568;2023-04-22T06:22:03;19.40;50.50
51476;DHT22;37554;50.362;7.568;2023-04-22T06:24:28;19.40;50.50
51476;DHT22;37554;50.362;7.568;2023-04-22T06:26:54;19.50;50.50
51476;DHT22;37554;50.362;7.568;2023-04-22T06:29:20;19.40;50.80
51476;DHT22;37554;50.362;7.568;2023-04-22T06:31:46;19.00;51.70
51476;DHT22;37554;50.362;7.568;2023-04-22T06:34:11;18.80;52.50
51476;DHT22;37554;50.362;7.568;2023-04-22T06:36:37;18.60;53.30
51476;DHT22;37554;50.362;7.568;2023-04-22T06:39:03;18.60;53.60
51476;DHT22;37554;50.362;7.568;2023-04-22T06:41:38;18.60;53.70
51476;DHT22;37554;50.362;7.568;2023-04-22T06:44:04;18.60;53.60
51476;DHT22;37554;50.362;7.568;2023-04-22T06:46:30;18.90;53.40
51476;DHT22;37554;50.362;7.568;2023-04-22T06:48:55;19.20;53.70
51476;DHT22;37554;50.362;7.568;2023-04-22T06:51:21;19.40;52.70
51476;DHT22;37554;50.362;7.568;2023-04-22T06:53:47;19.60;52.30
51476;DHT22;37554;50.362;7.568;2023-04-22T06:56:12;19.80;52.00
51476;DHT22;37554;50.362;7.568;2023-04-22T06:58:41;20.00;51.70
51476;DHT22;37554;50.362;7.568;2023-04-22T07:01:07;20.10;51.50
51476;DHT22;37554;50.362;7.568;2023-04-22T07:03:32;20.20;51.30
51476;DHT22;37554;50.362;7.568;2023-04-22T07:05:58;20.30;51.20
51476;DHT22;37554;50.362;7.568;2023-04-22T07:08:24;20.30;51.10
51476;DHT22;37554;50.362;7.568;2023-04-22T07:10:49;20.50;51.10
51476;DHT22;37554;50.362;7.568;2023-04-22T07:13:15;20.60;51.00
51476;DHT22;37554;50.362;7.568;2023-04-22T07:15:40;20.70;50.90
51476;DHT22;37554;50.362;7.568;2023-04-22T07:18:06;20.80;50.70
51476;DHT22;37554;50.362;7.568;2023-04-22T07:20:35;20.90;50.60
51476;DHT22;37554;50.362;7.568;2023-04-22T07:23:00;21.10;50.50
51476;DHT22;37554;50.362;7.568;2023-04-22T07:25:26;21.10;50.20
51476;DHT22;37554;50.362;7.568;2023-04-22T07:27:52;21.20;50.10
51476;DHT22;37554;50.362;7.568;2023-04-22T07:30:18;21.40;50.00
51476;DHT22;37554;50.362;7.568;2023-04-22T07:32:43;21.50;49.90
51476;DHT22;37554;50.362;7.568;2023-04-22T07:35:09;21.60;49.70
51476;DHT22;37554;50.362;7.568;2023-04-22T07:37:35;21.70;49.60
51476;DHT22;37554;50.362;7.568;2023-04-22T07:40:00;21.90;49.40
51476;DHT22;37554;50.362;7.568;2023-04-22T07:42:26;22.00;49.30
51476;DHT22;37554;50.362;7.568;2023-04-22T07:44:51;22.20;49.10
51476;DHT22;37554;50.362;7.568;2023-04-22T07:47:17;22.30;48.90
51476;DHT22;37554;50.362;7.568;2023-04-22T07:49:43;22.50;48.70
51476;DHT22;37554;50.362;7.568;2023-04-22T07:52:09;22.70;48.50
51476;DHT22;37554;50.362;7.568;2023-04-22T07:54:35;22.90;48.30
51476;DHT22;37554;50.362;7.568;2023-04-22T07:57:01;23.10;48.00
51476;DHT22;37554;50.362;7.568;2023-04-22T07:59:26;23.30;47.80
51476;DHT22;37554;50.362;7.568;2023-04-22T08:01:52;23.50;47.50
51476;DHT22;37554;50.362;7.568;2023-04-22T08:04:21;23.70;47.30
51476;DHT22;37554;50.362;7.568;2023-04-22T08:06:47;23.80;47.00
51476;DHT22;37554;50.362;7.568;2023-04-22T08:09:13;24.00;46.80
51476;DHT22;37554;50.362;7.568;2023-04-22T08:11:38;24.20;46.60
51476;DHT22;37554;50.362;7.568;2023-04-22T08:14:04;24.40;46.40
51476;DHT22;37554;50.362;7.568;2023-04-22T08:16:29;24.50;46.20
51476;DHT22;37554;50.362;7.568;2023-04-22T08:18:55;24.70;46.10
51476;DHT22;37554;50.362;7.568;2023-04-22T08:21:22;24.80;45.90
51476;DHT22;37554;50.362;7.568;2023-04-22T08:23:47;24.90;45.70
51476;DHT22;37554;50.362;7.568;2023-04-22T08:26:13;25.10;45.60
51476;DHT22;37554;50.362;7.568;2023-04-22T08:28:40;25.30;45.50
51476;DHT22;37554;50.362;7.568;2023-04-22T08:31:06;25.40;45.20
51476;DHT22;37554;50.362;7.568;2023-04-22T08:33:34;25.60;45.10
51476;DHT22;37554;50.362;7.568;2023-04-22T08:36:00;25.80;44.90
51476;DHT22;37554;50.362;7.568;2023-04-22T08:38:28;26.00;44.70
51476;DHT22;37554;50.362;7.568;2023-04-22T08:40:55;26.20;44.50
51476;DHT22;37554;50.362;7.568;2023-04-22T08:43:22;26.50;44.40
51476;DHT22;37554;50.362;7.568;2023-04-22T08:45:50;26.70;44.10
51476;DHT22;37554;50.362;7.568;2023-04-22T08:48:16;26.90;43.90
51476;DHT22;37554;50.362;7.568;2023-04-22T08:50:43;27.10;43.60
51476;DHT22;37554;50.362;7.568;2023-04-22T08:53:10;27.30;43.50
51476;DHT22;37554;50.362;7.568;2023-04-22T08:55:37;27.50;43.30
51476;DHT22;37554;50.362;7.568;2023-04-22T08:58:04;27.60;43.10
51476;DHT22;37554;50.362;7.568;2023-04-22T09:00:30;27.70;42.90
51476;DHT22;37554;50.362;7.568;2023-04-22T09:02:57;27.70;42.80
51476;DHT22;37554;50.362;7.568;2023-04-22T09:05:25;27.80;42.80
51476;DHT22;37554;50.362;7.568;2023-04-22T09:07:52;27.80;42.30
51476;DHT22;37554;50.362;7.568;2023-04-22T09:10:19;27.60;41.70
51476;DHT22;37554;50.362;7.568;2023-04-22T09:12:45;27.50;41.20
51476;DHT22;37554;50.362;7.568;2023-04-22T09:15:11;27.40;40.80
51476;DHT22;37554;50.362;7.568;2023-04-22T09:17:37;27.40;40.70
51476;DHT22;37554;50.362;7.568;2023-04-22T09:20:05;27.30;40.70
51476;DHT22;37554;50.362;7.568;2023-04-22T09:22:52;27.30;40.50
51476;DHT22;37554;50.362;7.568;2023-04-22T09:25:20;27.50;38.70
51476;DHT22;37554;50.362;7.568;2023-04-22T09:27:50;27.70;38.40
51476;DHT22;37554;50.362;7.568;2023-04-22T09:30:17;28.00;37.40
51476;DHT22;37554;50.362;7.568;2023-04-22T09:32:58;28.20;38.40
51476;DHT22;37554;50.362;7.568;2023-04-22T09:35:38;28.30;37.10
51476;DHT22;37554;50.362;7.568;2023-04-22T09:38:09;28.50;37.50
51476;DHT22;37554;50.362;7.568;2023-04-22T09:40:39;28.40;37.70
51476;DHT22;37554;50.362;7.568;2023-04-22T09:43:06;28.30;37.70
51476;DHT22;37554;50.362;7.568;2023-04-22T09:45:34;28.30;37.60
51476;DHT22;37554;50.362;7.568;2023-04-22T09:48:09;28.20;36.50
51476;DHT22;37554;50.362;7.568;2023-04-22T09:50:39;27.80;36.30
51476;DHT22;37554;50.362;7.568;2023-04-22T09:53:10;27.40;35.50
51476;DHT22;37554;50.362;7.568;2023-04-22T09:55:45;27.00;34.60
51476;DHT22;37554;50.362;7.568;2023-04-22T09:58:13;26.70;34.40
51476;DHT22;37554;50.362;7.568;2023-04-22T10:00:48;26.30;34.80
51476;DHT22;37554;50.362;7.568;2023-04-22T10:03:14;26.10;35.00
51476;DHT22;37554;50.362;7.568;2023-04-22T10:05:40;25.90;35.20
51476;DHT22;37554;50.362;7.568;2023-04-22T10:08:08;25.70;35.10
51476;DHT22;37554;50.362;7.568;2023-04-22T10:10:36;25.70;35.20
51476;DHT22;37554;50.362;7.568;2023-04-22T10:13:02;25.50;35.50
51476;DHT22;37554;50.362;7.568;2023-04-22T10:15:33;25.50;35.60
51476;DHT22;37554;50.362;7.568;2023-04-22T10:18:02;25.60;35.70
51476;DHT22;37554;50.362;7.568;2023-04-22T10:20:31;25.70;35.60
51476;DHT22;37554;50.362;7.568;2023-04-22T10:23:04;25.90;36.10
51476;DHT22;37554;50.362;7.568;2023-04-22T10:25:30;26.30;36.20
51476;DHT22;37554;50.362;7.568;2023-04-22T10:28:09;26.60;35.30
51476;DHT22;37554;50.362;7.568;2023-04-22T10:30:37;26.80;34.70
51476;DHT22;37554;50.362;7.568;2023-04-22T10:38:39;26.80;35.30
51476;DHT22;37554;50.362;7.568;2023-04-22T10:41:05;26.70;35.50
51476;DHT22;37554;50.362;7.568;2023-04-22T10:43:48;26.60;35.70
51476;DHT22;37554;50.362;7.568;2023-04-22T10:49:22;27.40;35.50
51476;DHT22;37554;50.362;7.568;2023-04-22T10:51:56;28.00;35.30
51476;DHT22;37554;50.362;7.568;2023-04-22T10:57:09;29.70;33.80
51476;DHT22;37554;50.362;7.568;2023-04-22T10:59:42;30.60;33.20
51476;DHT22;37554;50.362;7.568;2023-04-22T11:02:12;31.30;32.80
51476;DHT22;37554;50.362;7.568;2023-04-22T11:04:38;32.00;32.20
51476;DHT22;37554;50.362;7.568;2023-04-22T11:07:14;32.50;32.10
51476;DHT22;37554;50.362;7.568;2023-04-22T11:10:07;32.90;31.30
51476;DHT22;37554;50.362;7.568;2023-04-22T11:17:37;32.10;31.90
51476;DHT22;37554;50.362;7.568;2023-04-22T11:20:04;31.40;32.10
51476;DHT22;37554;50.362;7.568;2023-04-22T11:22:51;31.00;32.10
51476;DHT22;37554;50.362;7.568;2023-04-22T11:25:19;30.90;31.60
51476;DHT22;37554;50.362;7.568;2023-04-22T11:27:45;31.20;31.90
51476;DHT22;37554;50.362;7.568;2023-04-22T11:30:17;31.50;31.70
51476;DHT22;37554;50.362;7.568;2023-04-22T11:32:45;31.60;31.20
51476;DHT22;37554;50.362;7.568;2023-04-22T11:35:17;31.60;31.20
51476;DHT22;37554;50.362;7.568;2023-04-22T11:40:44;31.60;31.40
51476;DHT22;37554;50.362;7.568;2023-04-22T11:43:12;31.30;31.00
51476;DHT22;37554;50.362;7.568;2023-04-22T11:45:38;31.00;31.90
51476;DHT22;37554;50.362;7.568;2023-04-22T11:48:11;30.90;31.80
51476;DHT22;37554;50.362;7.568;2023-04-22T11:50:40;30.90;31.70
51476;DHT22;37554;50.362;7.568;2023-04-22T11:53:27;30.70;31.50
51476;DHT22;37554;50.362;7.568;2023-04-22T11:55:55;30.70;31.10
51476;DHT22;37554;50.362;7.568;2023-04-22T11:58:25;30.50;31.60
51476;DHT22;37554;50.362;7.568;2023-04-22T12:00:53;30.50;31.50
51476;DHT22;37554;50.362;7.568;2023-04-22T12:03:38;30.40;31.20
51476;DHT22;37554;50.362;7.568;2023-04-22T12:06:07;30.30;30.80
51476;DHT22;37554;50.362;7.568;2023-04-22T12:08:35;30.20;31.50
51476;DHT22;37554;50.362;7.568;2023-04-22T12:11:04;30.10;31.60
51476;DHT22;37554;50.362;7.568;2023-04-22T12:13:40;30.00;31.60
51476;DHT22;37554;50.362;7.568;2023-04-22T12:16:14;29.80;31.50
51476;DHT22;37554;50.362;7.568;2023-04-22T12:18:53;29.70;31.80
51476;DHT22;37554;50.362;7.568;2023-04-22T12:21:21;29.50;31.20
51476;DHT22;37554;50.362;7.568;2023-04-22T12:23:54;29.00;32.00
